sensor_id;sensor_type;location;lat;lon;timestamp;pressure;altitude;pressure_sealevel;temperature;humidity
45731;BME280;31440;48.584;13.460;2023-04-15T00:00:17;95533.44;;;3.48;100.00
45731;BME280;31440;48.584;13.460;2023-04-15T00:03:23;95516.34;;;3.47;100.00
45731;BME280;31440;48.584;13.460;2023-04-15T00:06:28;95518.19;;;3.15;100.00
45731;BME280;31440;48.584;13.460;2023-04-15T00:09:34;95501.41;;;3.32;100.00
45731;BME280;31440;48.584;13.460;2023-04-15T00:12:39;95512.66;;;3.28;100.00
45731;BME280;31440;48.584;13.460;2023-04-15T00:15:44;95504.06;;;3.29;100.00
45731;BME280;31440;48.584;13.460;2023-04-15T00:18:49;95499.13;;;3.22;100.00
45731;BME280;31440;48.584;13.460;2023-04-15T00:21:53;95499.03;;;3.26;100.00
45731;BME280;31440;48.584;13.460;2023-04-15T00:24:59;95490.81;;;3.41;100.00
45731;BME280;31440;48.584;13.460;2023-04-15T00:28:03;95510.41;;;3.45;100.00
45731;BME280;31440;48.584;13.460;2023-04-15T00:31:08;95499.41;;;3.13;100.00
45731;BME280;31440;48.584;13.460;2023-04-15T00:34:13;95511.91;;;3.24;100.00
45731;BME280;31440;48.584;13.460;2023-04-15T00:37:19;95525.59;;;3.24;100.00
45731;BME280;31440;48.584;13.460;2023-04-15T00:40:24;95482.31;;;3.12;100.00
45731;BME280;31440;48.584;13.460;2023-04-15T00:43:29;95499.16;;;3.21;100.00
45731;BME280;31440;48.584;13.460;2023-04-15T00:46:36;95479.53;;;3.46;100.00
45731;BME280;31440;48.584;13.460;2023-04-15T00:49:41;95471.28;;;3.37;100.00
45731;BME280;31440;48.584;13.460;2023-04-15T00:52:46;95508.91;;;3.11;100.00
45731;BME280;31440;48.584;13.460;2023-04-15T00:55:52;95516.72;;;3.35;100.00
45731;BME280;31440;48.584;13.460;2023-04-15T00:58:57;95512.72;;;3.26;100.00
45731;BME280;31440;48.584;13.460;2023-04-15T01:02:03;95466.22;;;3.07;100.00
45731;BME280;31440;48.584;13.460;2023-04-15T01:05:08;95481.13;;;3.22;100.00
45731;BME280;31440;48.584;13.460;2023-04-15T01:08:13;95485.06;;;3.06;100.00
45731;BME280;31440;48.584;13.460;2023-04-15T01:11:18;95518.25;;;3.14;100.00
45731;BME280;31440;48.584;13.460;2023-04-15T01:14:24;95476.00;;;2.96;100.00
45731;BME280;31440;48.584;13.460;2023-04-15T01:17:29;95486.19;;;3.26;100.00
45731;BME280;31440;48.584;13.460;2023-04-15T01:20:34;95518.69;;;3.27;100.00
45731;BME280;31440;48.584;13.460;2023-04-15T01:23:39;95501.50;;;3.29;100.00
45731;BME280;31440;48.584;13.460;2023-04-15T01:26:44;95520.78;;;3.42;100.00
45731;BME280;31440;48.584;13.460;2023-04-15T01:29:50;95492.59;;;3.12;100.00
45731;BME280;31440;48.584;13.460;2023-04-15T01:32:54;95501.41;;;3.32;100.00
45731;BME280;31440;48.584;13.460;2023-04-15T01:35:59;95470.47;;;3.08;100.00
45731;BME280;31440;48.584;13.460;2023-04-15T01:39:04;95491.88;;;3.35;100.00
45731;BME280;31440;48.584;13.460;2023-04-15T01:42:10;95498.13;;;3.27;100.00
45731;BME280;31440;48.584;13.460;2023-04-15T01:45:15;95476.47;;;3.07;100.00
45731;BME280;31440;48.584;13.460;2023-04-15T01:48:20;95465.19;;;2.85;100.00
45731;BME280;31440;48.584;13.460;2023-04-15T01:51:25;95469.09;;;2.98;100.00
45731;BME280;31440;48.584;13.460;2023-04-15T01:54:30;95480.66;;;3.11;100.00
45731;BME280;31440;48.584;13.460;2023-04-15T01:57:35;95480.78;;;3.07;100.00
45731;BME280;31440;48.584;13.460;2023-04-15T02:00:40;95481.72;;;3.04;100.00
45731;BME280;31440;48.584;13.460;2023-04-15T02:03:45;95484.75;;;2.89;100.00
45731;BME280;31440;48.584;13.460;2023-04-15T02:06:52;95509.91;;;3.34;100.00
45731;BME280;31440;48.584;13.460;2023-04-15T02:09:58;95482.59;;;2.75;100.00
45731;BME280;31440;48.584;13.460;2023-04-15T02:13:02;95499.47;;;3.12;100.00
45731;BME280;31440;48.584;13.460;2023-04-15T02:16:17;95492.50;;;3.15;100.00
45731;BME280;31440;48.584;13.460;2023-04-15T02:19:23;95482.97;;;2.91;100.00
45731;BME280;31440;48.584;13.460;2023-04-15T02:22:28;95484.16;;;2.81;100.00
45731;BME280;31440;48.584;13.460;2023-04-15T02:25:33;95499.84;;;3.00;100.00
45731;BME280;31440;48.584;13.460;2023-04-15T02:28:41;95488.06;;;2.93;100.00
45731;BME280;31440;48.584;13.460;2023-04-15T02:31:45;95487.06;;;2.98;100.00
45731;BME280;31440;48.584;13.460;2023-04-15T02:34:51;95518.09;;;3.18;100.00
45731;BME280;31440;48.584;13.460;2023-04-15T02:37:56;95489.41;;;3.04;100.00
45731;BME280;31440;48.584;13.460;2023-04-15T02:41:01;95491.34;;;2.98;100.00
45731;BME280;31440;48.584;13.460;2023-04-15T02:44:06;95492.88;;;3.03;100.00
45731;BME280;31440;48.584;13.460;2023-04-15T02:47:15;95495.38;;;3.05;100.00
45731;BME280;31440;48.584;13.460;2023-04-15T02:50:19;95481.25;;;2.92;100.00
45731;BME280;31440;48.584;13.460;2023-04-15T02:53:24;95486.59;;;2.84;100.00
45731;BME280;31440;48.584;13.460;2023-04-15T02:56:30;95489.16;;;2.56;100.00
45731;BME280;31440;48.584;13.460;2023-04-15T02:59:35;95498.56;;;2.85;100.00
45731;BME280;31440;48.584;13.460;2023-04-15T03:02:39;95480.25;;;2.68;100.00
45731;BME280;31440;48.584;13.460;2023-04-15T03:05:45;95476.81;;;2.69;100.00
45731;BME280;31440;48.584;13.460;2023-04-15T03:08:50;95504.41;;;2.90;100.00
45731;BME280;31440;48.584;13.460;2023-04-15T03:11:55;95497.22;;;2.73;100.00
45731;BME280;31440;48.584;13.460;2023-04-15T03:15:01;95508.28;;;2.75;100.00
45731;BME280;31440;48.584;13.460;2023-04-15T03:18:12;95475.03;;;2.71;100.00
45731;BME280;31440;48.584;13.460;2023-04-15T03:21:17;95485.72;;;2.85;100.00
45731;BME280;31440;48.584;13.460;2023-04-15T03:24:25;95477.03;;;2.61;100.00
45731;BME280;31440;48.584;13.460;2023-04-15T03:27:32;95480.50;;;2.88;100.00
45731;BME280;31440;48.584;13.460;2023-04-15T03:30:39;95471.19;;;2.56;100.00
45731;BME280;31440;48.584;13.460;2023-04-15T03:33:45;95466.44;;;2.44;100.00
45731;BME280;31440;48.584;13.460;2023-04-15T03:36:50;95477.69;;;2.68;100.00
45731;BME280;31440;48.584;13.460;2023-04-15T03:39:55;95518.31;;;3.11;100.00
45731;BME280;31440;48.584;13.460;2023-04-15T03:43:00;95490.69;;;2.91;100.00
45731;BME280;31440;48.584;13.460;2023-04-15T03:46:05;95490.41;;;3.00;100.00
45731;BME280;31440;48.584;13.460;2023-04-15T03:49:10;95493.34;;;2.88;100.00
45731;BME280;31440;48.584;13.460;2023-04-15T03:52:14;95497.63;;;2.87;100.00
45731;BME280;31440;48.584;13.460;2023-04-15T03:55:19;95504.19;;;2.98;100.00
45731;BME280;31440;48.584;13.460;2023-04-15T03:58:24;95504.34;;;2.64;100.00
45731;BME280;31440;48.584;13.460;2023-04-15T04:01:28;95478.97;;;2.53;100.00
45731;BME280;31440;48.584;13.460;2023-04-15T04:04:33;95485.91;;;2.49;100.00
45731;BME280;31440;48.584;13.460;2023-04-15T04:07:38;95456.38;;;2.36;100.00
45731;BME280;31440;48.584;13.460;2023-04-15T04:10:42;95475.41;;;2.59;100.00
45731;BME280;31440;48.584;13.460;2023-04-15T04:13:47;95498.94;;;2.73;100.00
45731;BME280;31440;48.584;13.460;2023-04-15T04:16:52;95506.66;;;2.71;100.00
45731;BME280;31440;48.584;13.460;2023-04-15T04:19:57;95482.38;;;2.53;100.00
45731;BME280;31440;48.584;13.460;2023-04-15T04:23:01;95502.59;;;2.66;100.00
45731;BME280;31440;48.584;13.460;2023-04-15T04:26:06;95516.78;;;2.77;100.00
45731;BME280;31440;48.584;13.460;2023-04-15T04:29:10;95510.31;;;2.64;100.00
45731;BME280;31440;48.584;13.460;2023-04-15T04:32:15;95484.50;;;2.69;100.00
45731;BME280;31440;48.584;13.460;2023-04-15T04:35:20;95522.38;;;2.90;100.00
45731;BME280;31440;48.584;13.460;2023-04-15T04:38:25;95490.34;;;2.74;100.00
45731;BME280;31440;48.584;13.460;2023-04-15T04:41:29;95478.38;;;2.45;100.00
45731;BME280;31440;48.584;13.460;2023-04-15T04:44:35;95489.28;;;2.51;100.00
45731;BME280;31440;48.584;13.460;2023-04-15T04:47:40;95505.59;;;2.49;100.00
45731;BME280;31440;48.584;13.460;2023-04-15T04:50:45;95531.44;;;2.43;100.00
45731;BME280;31440;48.584;13.460;2023-04-15T04:53:50;95493.81;;;2.12;100.00
45731;BME280;31440;48.584;13.460;2023-04-15T04:56:55;95501.41;;;2.15;100.00
45731;BME280;31440;48.584;13.460;2023-04-15T05:00:01;95522.09;;;2.40;100.00
45731;BME280;31440;48.584;13.460;2023-04-15T05:03:08;95515.63;;;2.58;100.00
45731;BME280;31440;48.584;13.460;2023-04-15T05:06:13;95526.59;;;2.63;100.00
45731;BME280;31440;48.584;13.460;2023-04-15T05:09:17;95521.00;;;2.49;100.00
45731;BME280;31440;48.584;13.460;2023-04-15T05:12:22;95459.53;;;2.15;100.00
45731;BME280;31440;48.584;13.460;2023-04-15T05:15:27;95516.22;;;2.37;100.00
45731;BME280;31440;48.584;13.460;2023-04-15T05:18:32;95548.84;;;2.32;100.00
45731;BME280;31440;48.584;13.460;2023-04-15T05:21:36;95530.69;;;2.39;100.00
45731;BME280;31440;48.584;13.460;2023-04-15T05:24:43;95526.53;;;2.35;100.00
45731;BME280;31440;48.584;13.460;2023-04-15T05:27:47;95535.13;;;2.33;100.00
45731;BME280;31440;48.584;13.460;2023-04-15T05:30:52;95559.66;;;2.43;100.00
45731;BME280;31440;48.584;13.460;2023-04-15T05:33:57;95523.47;;;2.23;100.00
45731;BME280;31440;48.584;13.460;2023-04-15T05:37:01;95534.13;;;2.38;100.00
45731;BME280;31440;48.584;13.460;2023-04-15T05:40:07;95532.72;;;2.28;100.00
45731;BME280;31440;48.584;13.460;2023-04-15T05:43:13;95537.75;;;2.31;100.00
45731;BME280;31440;48.584;13.460;2023-04-15T05:46:18;95589.16;;;2.88;100.00
45731;BME280;31440;48.584;13.460;2023-04-15T05:49:23;95560.53;;;2.73;100.00
45731;BME280;31440;48.584;13.460;2023-04-15T05:52:27;95564.19;;;2.66;100.00
45731;BME280;31440;48.584;13.460;2023-04-15T05:55:32;95588.47;;;2.52;100.00
45731;BME280;31440;48.584;13.460;2023-04-15T05:58:36;95579.28;;;2.45;100.00
45731;BME280;31440;48.584;13.460;2023-04-15T06:01:41;95575.97;;;2.09;100.00
45731;BME280;31440;48.584;13.460;2023-04-15T06:04:46;95550.63;;;1.97;100.00
45731;BME280;31440;48.584;13.460;2023-04-15T06:07:51;95601.63;;;2.08;100.00
45731;BME280;31440;48.584;13.460;2023-04-15T06:10:57;95576.69;;;2.13;100.00
45731;BME280;31440;48.584;13.460;2023-04-15T06:14:01;95578.53;;;2.09;100.00
45731;BME280;31440;48.584;13.460;2023-04-15T06:17:06;95591.09;;;2.18;100.00
45731;BME280;31440;48.584;13.460;2023-04-15T06:20:11;95584.75;;;1.99;100.00
45731;BME280;31440;48.584;13.460;2023-04-15T06:23:16;95597.78;;;2.57;100.00
45731;BME280;31440;48.584;13.460;2023-04-15T06:26:21;95586.69;;;3.43;100.00
45731;BME280;31440;48.584;13.460;2023-04-15T06:29:25;95573.63;;;3.77;100.00
45731;BME280;31440;48.584;13.460;2023-04-15T06:32:31;95555.91;;;3.41;100.00
45731;BME280;31440;48.584;13.460;2023-04-15T06:35:36;95592.56;;;2.60;100.00
45731;BME280;31440;48.584;13.460;2023-04-15T06:38:41;95612.22;;;2.61;100.00
45731;BME280;31440;48.584;13.460;2023-04-15T06:41:45;95587.31;;;2.64;100.00
45731;BME280;31440;48.584;13.460;2023-04-15T06:44:50;95575.91;;;2.43;100.00
45731;BME280;31440;48.584;13.460;2023-04-15T06:47:55;95593.81;;;2.12;100.00
45731;BME280;31440;48.584;13.460;2023-04-15T06:50:59;95587.84;;;2.44;100.00
45731;BME280;31440;48.584;13.460;2023-04-15T06:54:04;95594.88;;;2.38;100.00
45731;BME280;31440;48.584;13.460;2023-04-15T06:57:09;95572.56;;;2.40;100.00
45731;BME280;31440;48.584;13.460;2023-04-15T07:00:14;95593.84;;;2.74;100.00
45731;BME280;31440;48.584;13.460;2023-04-15T07:03:20;95569.91;;;2.74;100.00
45731;BME280;31440;48.584;13.460;2023-04-15T07:06:24;95581.56;;;2.54;100.00
45731;BME280;31440;48.584;13.460;2023-04-15T07:09:29;95619.84;;;2.93;100.00
45731;BME280;31440;48.584;13.460;2023-04-15T07:12:34;95587.19;;;2.67;100.00
45731;BME280;31440;48.584;13.460;2023-04-15T07:15:39;95574.16;;;2.75;100.00
45731;BME280;31440;48.584;13.460;2023-04-15T07:18:43;95611.78;;;2.76;100.00
45731;BME280;31440;48.584;13.460;2023-04-15T07:21:48;95631.13;;;3.18;100.00
45731;BME280;31440;48.584;13.460;2023-04-15T07:24:52;95617.00;;;3.02;100.00
45731;BME280;31440;48.584;13.460;2023-04-15T07:27:57;95597.28;;;3.04;100.00
45731;BME280;31440;48.584;13.460;2023-04-15T07:31:02;95626.16;;;3.12;100.00
45731;BME280;31440;48.584;13.460;2023-04-15T07:34:07;95622.69;;;3.13;100.00
45731;BME280;31440;48.584;13.460;2023-04-15T07:37:12;95625.44;;;3.07;100.00
45731;BME280;31440;48.584;13.460;2023-04-15T07:40:17;95615.44;;;2.98;100.00
45731;BME280;31440;48.584;13.460;2023-04-15T07:43:22;95610.47;;;2.92;100.00
45731;BME280;31440;48.584;13.460;2023-04-15T07:46:26;95604.31;;;2.98;100.00
45731;BME280;31440;48.584;13.460;2023-04-15T07:49:32;95604.84;;;3.09;100.00
45731;BME280;31440;48.584;13.460;2023-04-15T07:52:36;95612.16;;;2.93;100.00
45731;BME280;31440;48.584;13.460;2023-04-15T07:55:44;95641.41;;;3.18;100.00
45731;BME280;31440;48.584;13.460;2023-04-15T07:58:48;95624.66;;;3.04;100.00
45731;BME280;31440;48.584;13.460;2023-04-15T08:01:53;95655.06;;;3.48;100.00
45731;BME280;31440;48.584;13.460;2023-04-15T08:04:58;95641.28;;;3.51;100.00
45731;BME280;31440;48.584;13.460;2023-04-15T08:08:05;95644.09;;;3.42;100.00
45731;BME280;31440;48.584;13.460;2023-04-15T08:11:11;95614.69;;;3.52;100.00
45731;BME280;31440;48.584;13.460;2023-04-15T08:14:16;95617.06;;;3.58;100.00
45731;BME280;31440;48.584;13.460;2023-04-15T08:17:20;95651.81;;;3.42;100.00
45731;BME280;31440;48.584;13.460;2023-04-15T08:20:25;95634.81;;;3.66;100.00
45731;BME280;31440;48.584;13.460;2023-04-15T08:23:31;95647.22;;;3.53;100.00
45731;BME280;31440;48.584;13.460;2023-04-15T08:26:36;95625.78;;;3.24;100.00
45731;BME280;31440;48.584;13.460;2023-04-15T08:29:41;95645.75;;;3.44;100.00
45731;BME280;31440;48.584;13.460;2023-04-15T08:32:46;95643.16;;;4.02;100.00
45731;BME280;31440;48.584;13.460;2023-04-15T08:35:51;95641.41;;;3.74;100.00
45731;BME280;31440;48.584;13.460;2023-04-15T08:38:56;95634.44;;;3.78;100.00
45731;BME280;31440;48.584;13.460;2023-04-15T08:42:02;95626.22;;;3.95;100.00
45731;BME280;31440;48.584;13.460;2023-04-15T08:45:09;95644.75;;;4.31;100.00
45731;BME280;31440;48.584;13.460;2023-04-15T08:48:17;95645.94;;;3.94;100.00
45731;BME280;31440;48.584;13.460;2023-04-15T08:51:21;95642.09;;;3.53;100.00
45731;BME280;31440;48.584;13.460;2023-04-15T08:54:28;95635.56;;;3.97;100.00
45731;BME280;31440;48.584;13.460;2023-04-15T08:57:34;95653.13;;;4.11;100.00
45731;BME280;31440;48.584;13.460;2023-04-15T09:00:40;95634.59;;;4.01;100.00
45731;BME280;31440;48.584;13.460;2023-04-15T09:03:47;95641.28;;;4.07;100.00
45731;BME280;31440;48.584;13.460;2023-04-15T09:06:52;95649.47;;;3.91;100.00
45731;BME280;31440;48.584;13.460;2023-04-15T09:09:57;95647.91;;;3.86;100.00
45731;BME280;31440;48.584;13.460;2023-04-15T09:13:02;95661.91;;;4.05;100.00
45731;BME280;31440;48.584;13.460;2023-04-15T09:16:07;95632.53;;;4.37;100.00
45731;BME280;31440;48.584;13.460;2023-04-15T09:19:22;95654.00;;;4.36;100.00
45731;BME280;31440;48.584;13.460;2023-04-15T09:22:31;95663.09;;;4.21;100.00
45731;BME280;31440;48.584;13.460;2023-04-15T09:25:36;95688.16;;;4.41;100.00
45731;BME280;31440;48.584;13.460;2023-04-15T09:28:41;95680.97;;;4.51;100.00
45731;BME280;31440;48.584;13.460;2023-04-15T09:31:46;95661.81;;;4.08;100.00
45731;BME280;31440;48.584;13.460;2023-04-15T09:34:51;95657.78;;;3.72;100.00
45731;BME280;31440;48.584;13.460;2023-04-15T09:38:04;95697.75;;;4.63;100.00
45731;BME280;31440;48.584;13.460;2023-04-15T09:41:16;95699.25;;;4.43;100.00
45731;BME280;31440;48.584;13.460;2023-04-15T09:44:24;95675.81;;;4.26;100.00
45731;BME280;31440;48.584;13.460;2023-04-15T09:47:30;95680.78;;;4.57;100.00
45731;BME280;31440;48.584;13.460;2023-04-15T09:50:40;95664.00;;;4.45;100.00
45731;BME280;31440;48.584;13.460;2023-04-15T09:53:44;95667.81;;;4.60;100.00
45731;BME280;31440;48.584;13.460;2023-04-15T09:56:49;95695.75;;;4.71;100.00
45731;BME280;31440;48.584;13.460;2023-04-15T09:59:53;95658.88;;;4.19;100.00
45731;BME280;31440;48.584;13.460;2023-04-15T10:02:58;95680.41;;;4.43;100.00
45731;BME280;31440;48.584;13.460;2023-04-15T10:06:03;95699.22;;;4.70;100.00
45731;BME280;31440;48.584;13.460;2023-04-15T10:09:09;95662.34;;;4.44;100.00
45731;BME280;31440;48.584;13.460;2023-04-15T10:12:16;95679.06;;;4.31;100.00
45731;BME280;31440;48.584;13.460;2023-04-15T10:15:21;95654.44;;;4.49;100.00
45731;BME280;31440;48.584;13.460;2023-04-15T10:18:27;95708.06;;;4.63;100.00
45731;BME280;31440;48.584;13.460;2023-04-15T10:21:33;95677.47;;;4.53;100.00
45731;BME280;31440;48.584;13.460;2023-04-15T10:24:39;95708.47;;;4.75;100.00
45731;BME280;31440;48.584;13.460;2023-04-15T10:27:44;95699.59;;;4.59;100.00
45731;BME280;31440;48.584;13.460;2023-04-15T10:30:49;95706.22;;;4.91;100.00
45731;BME280;31440;48.584;13.460;2023-04-15T10:33:53;95684.59;;;4.19;100.00
45731;BME280;31440;48.584;13.460;2023-04-15T10:37:02;95688.91;;;4.45;100.00
45731;BME280;31440;48.584;13.460;2023-04-15T10:40:28;95725.00;;;4.94;100.00
45731;BME280;31440;48.584;13.460;2023-04-15T10:43:36;95723.25;;;4.95;100.00
45731;BME280;31440;48.584;13.460;2023-04-15T10:46:42;95732.31;;;4.55;100.00
45731;BME280;31440;48.584;13.460;2023-04-15T10:49:56;95723.56;;;4.86;100.00
45731;BME280;31440;48.584;13.460;2023-04-15T10:53:02;95725.94;;;5.40;100.00
45731;BME280;31440;48.584;13.460;2023-04-15T10:56:09;95722.97;;;5.27;100.00
45731;BME280;31440;48.584;13.460;2023-04-15T10:59:14;95701.38;;;5.07;100.00
45731;BME280;31440;48.584;13.460;2023-04-15T11:02:19;95707.75;;;4.96;100.00
45731;BME280;31440;48.584;13.460;2023-04-15T11:09:30;95727.06;;;5.33;100.00
45731;BME280;31440;48.584;13.460;2023-04-15T11:12:36;95731.34;;;5.09;100.00
45731;BME280;31440;48.584;13.460;2023-04-15T11:15:45;95704.69;;;4.60;100.00
45731;BME280;31440;48.584;13.460;2023-04-15T11:18:53;95744.69;;;4.71;100.00
45731;BME280;31440;48.584;13.460;2023-04-15T11:22:08;95743.38;;;4.84;100.00
45731;BME280;31440;48.584;13.460;2023-04-15T11:25:30;95735.19;;;4.97;100.00
45731;BME280;31440;48.584;13.460;2023-04-15T11:28:39;95749.25;;;4.87;100.00
45731;BME280;31440;48.584;13.460;2023-04-15T11:31:46;95758.16;;;5.04;100.00
45731;BME280;31440;48.584;13.460;2023-04-15T11:34:53;95728.06;;;5.04;100.00
45731;BME280;31440;48.584;13.460;2023-04-15T11:38:02;95729.13;;;4.74;100.00
45731;BME280;31440;48.584;13.460;2023-04-15T11:41:07;95736.59;;;5.06;100.00
45731;BME280;31440;48.584;13.460;2023-04-15T11:44:16;95764.59;;;5.40;100.00
45731;BME280;31440;48.584;13.460;2023-04-15T11:47:22;95768.66;;;5.22;100.00
45731;BME280;31440;48.584;13.460;2023-04-15T11:50:27;95746.38;;;4.96;100.00
45731;BME280;31440;48.584;13.460;2023-04-15T11:53:50;95740.22;;;4.76;100.00
45731;BME280;31440;48.584;13.460;2023-04-15T11:56:55;95741.38;;;4.92;100.00
45731;BME280;31440;48.584;13.460;2023-04-15T12:00:00;95776.50;;;5.19;100.00
45731;BME280;31440;48.584;13.460;2023-04-15T12:03:28;95769.16;;;4.82;100.00
45731;BME280;31440;48.584;13.460;2023-04-15T12:06:34;95767.38;;;4.32;100.00
45731;BME280;31440;48.584;13.460;2023-04-15T12:09:40;95744.56;;;4.47;100.00
45731;BME280;31440;48.584;13.460;2023-04-15T12:12:48;95758.16;;;4.52;100.00
45731;BME280;31440;48.584;13.460;2023-04-15T12:15:54;95768.22;;;4.32;100.00
45731;BME280;31440;48.584;13.460;2023-04-15T12:18:59;95769.84;;;4.63;100.00
45731;BME280;31440;48.584;13.460;2023-04-15T12:22:09;95784.56;;;5.10;100.00
45731;BME280;31440;48.584;13.460;2023-04-15T12:25:14;95767.78;;;5.23;100.00
45731;BME280;31440;48.584;13.460;2023-04-15T12:28:19;95756.25;;;5.09;100.00
45731;BME280;31440;48.584;13.460;2023-04-15T12:31:23;95762.84;;;4.40;100.00
45731;BME280;31440;48.584;13.460;2023-04-15T12:34:33;95773.00;;;4.71;100.00
45731;BME280;31440;48.584;13.460;2023-04-15T12:37:39;95769.63;;;4.95;100.00
45731;BME280;31440;48.584;13.460;2023-04-15T12:40:45;95763.06;;;5.11;100.00
45731;BME280;31440;48.584;13.460;2023-04-15T12:43:50;95785.72;;;5.26;100.00
45731;BME280;31440;48.584;13.460;2023-04-15T12:46:55;95792.47;;;4.53;100.00
45731;BME280;31440;48.584;13.460;2023-04-15T12:50:01;95787.38;;;5.03;100.00
45731;BME280;31440;48.584;13.460;2023-04-15T12:53:05;95769.06;;;4.85;100.00
45731;BME280;31440;48.584;13.460;2023-04-15T12:56:10;95788.59;;;4.92;100.00
45731;BME280;31440;48.584;13.460;2023-04-15T12:59:16;95789.38;;;5.19;100.00
45731;BME280;31440;48.584;13.460;2023-04-15T13:02:24;95794.34;;;5.50;100.00
45731;BME280;31440;48.584;13.460;2023-04-15T13:05:32;95787.06;;;5.85;100.00
45731;BME280;31440;48.584;13.460;2023-04-15T13:08:36;95792.81;;;5.91;100.00
45731;BME280;31440;48.584;13.460;2023-04-15T13:11:48;95814.50;;;6.09;100.00
45731;BME280;31440;48.584;13.460;2023-04-15T13:14:53;95812.81;;;5.13;100.00
45731;BME280;31440;48.584;13.460;2023-04-15T13:17:58;95806.19;;;5.54;100.00
45731;BME280;31440;48.584;13.460;2023-04-15T13:21:02;95818.59;;;6.15;100.00
45731;BME280;31440;48.584;13.460;2023-04-15T13:24:08;95840.09;;;6.15;100.00
45731;BME280;31440;48.584;13.460;2023-04-15T13:27:13;95827.66;;;6.03;100.00
45731;BME280;31440;48.584;13.460;2023-04-15T13:30:18;95836.44;;;5.97;100.00
45731;BME280;31440;48.584;13.460;2023-04-15T13:33:22;95837.56;;;6.14;100.00
45731;BME280;31440;48.584;13.460;2023-04-15T13:36:27;95814.03;;;5.99;100.00
45731;BME280;31440;48.584;13.460;2023-04-15T13:39:31;95825.63;;;6.78;100.00
45731;BME280;31440;48.584;13.460;2023-04-15T13:42:36;95810.28;;;6.30;100.00
45731;BME280;31440;48.584;13.460;2023-04-15T13:45:41;95819.72;;;6.08;100.00
45731;BME280;31440;48.584;13.460;2023-04-15T13:48:45;95820.53;;;6.31;100.00
45731;BME280;31440;48.584;13.460;2023-04-15T13:51:50;95849.41;;;6.19;100.00
45731;BME280;31440;48.584;13.460;2023-04-15T13:54:55;95836.41;;;5.99;100.00
45731;BME280;31440;48.584;13.460;2023-04-15T13:58:20;95834.59;;;6.01;100.00
45731;BME280;31440;48.584;13.460;2023-04-15T14:01:24;95825.91;;;5.80;100.00
45731;BME280;31440;48.584;13.460;2023-04-15T14:04:30;95859.25;;;5.61;100.00
45731;BME280;31440;48.584;13.460;2023-04-15T14:07:35;95826.50;;;5.63;100.00
45731;BME280;31440;48.584;13.460;2023-04-15T14:10:40;95858.72;;;6.47;100.00
45731;BME280;31440;48.584;13.460;2023-04-15T14:13:47;95848.78;;;7.23;100.00
45731;BME280;31440;48.584;13.460;2023-04-15T14:16:54;95870.75;;;7.33;100.00
45731;BME280;31440;48.584;13.460;2023-04-15T14:19:59;95844.13;;;6.67;100.00
45731;BME280;31440;48.584;13.460;2023-04-15T14:23:04;95865.94;;;6.82;100.00
45731;BME280;31440;48.584;13.460;2023-04-15T14:26:09;95864.56;;;6.74;100.00
45731;BME280;31440;48.584;13.460;2023-04-15T14:29:13;95849.56;;;6.15;100.00
45731;BME280;31440;48.584;13.460;2023-04-15T14:32:18;95878.56;;;6.90;100.00
45731;BME280;31440;48.584;13.460;2023-04-15T14:35:23;95883.81;;;6.20;100.00
45731;BME280;31440;48.584;13.460;2023-04-15T14:38:30;95873.03;;;6.55;100.00
45731;BME280;31440;48.584;13.460;2023-04-15T14:41:34;95875.09;;;6.46;100.00
45731;BME280;31440;48.584;13.460;2023-04-15T14:44:39;95888.66;;;5.56;100.00
45731;BME280;31440;48.584;13.460;2023-04-15T14:47:44;95894.97;;;5.97;100.00
45731;BME280;31440;48.584;13.460;2023-04-15T14:50:49;95898.09;;;5.82;100.00
45731;BME280;31440;48.584;13.460;2023-04-15T14:53:53;95867.34;;;5.76;100.00
45731;BME280;31440;48.584;13.460;2023-04-15T14:56:58;95896.00;;;5.91;100.00
45731;BME280;31440;48.584;13.460;2023-04-15T15:00:04;95886.22;;;6.01;100.00
45731;BME280;31440;48.584;13.460;2023-04-15T15:03:10;95928.25;;;5.80;100.00
45731;BME280;31440;48.584;13.460;2023-04-15T15:06:19;95891.53;;;5.72;100.00
45731;BME280;31440;48.584;13.460;2023-04-15T15:09:24;95917.72;;;5.86;100.00
45731;BME280;31440;48.584;13.460;2023-04-15T15:12:29;95914.38;;;6.07;100.00
45731;BME280;31440;48.584;13.460;2023-04-15T15:15:35;95925.28;;;5.90;100.00
45731;BME280;31440;48.584;13.460;2023-04-15T15:18:40;95912.72;;;6.53;100.00
45731;BME280;31440;48.584;13.460;2023-04-15T15:21:45;95902.78;;;6.19;100.00
45731;BME280;31440;48.584;13.460;2023-04-15T15:24:50;95913.09;;;6.19;100.00
45731;BME280;31440;48.584;13.460;2023-04-15T15:27:56;95941.94;;;5.82;100.00
45731;BME280;31440;48.584;13.460;2023-04-15T15:31:00;95915.41;;;5.78;100.00
45731;BME280;31440;48.584;13.460;2023-04-15T15:34:05;95920.56;;;5.78;100.00
45731;BME280;31440;48.584;13.460;2023-04-15T15:37:10;95939.81;;;5.93;100.00
45731;BME280;31440;48.584;13.460;2023-04-15T15:40:15;95927.41;;;5.79;100.00
45731;BME280;31440;48.584;13.460;2023-04-15T15:43:19;95929.19;;;5.77;100.00
45731;BME280;31440;48.584;13.460;2023-04-15T15:46:25;95964.00;;;6.40;100.00
45731;BME280;31440;48.584;13.460;2023-04-15T15:49:31;95967.84;;;6.04;100.00
45731;BME280;31440;48.584;13.460;2023-04-15T15:52:36;95961.59;;;6.09;100.00
45731;BME280;31440;48.584;13.460;2023-04-15T15:55:40;95954.75;;;5.85;100.00
45731;BME280;31440;48.584;13.460;2023-04-15T15:58:45;95954.94;;;5.79;100.00
45731;BME280;31440;48.584;13.460;2023-04-15T16:01:50;95972.34;;;5.72;100.00
45731;BME280;31440;48.584;13.460;2023-04-15T16:04:55;95964.50;;;5.50;100.00
45731;BME280;31440;48.584;13.460;2023-04-15T16:08:00;95970.13;;;5.61;100.00
45731;BME280;31440;48.584;13.460;2023-04-15T16:11:05;95970.94;;;5.63;100.00
45731;BME280;31440;48.584;13.460;2023-04-15T16:14:09;95956.50;;;5.31;100.00